Time;durP1;ratioP1;P1;durP2;ratioP2;P2;SDS_P1;SDS_P2;PMS_P1;PMS_P2;Temp;Humidity;BMP_temperature;BMP_pressure;BME280_temperature;BME280_humidity;BME280_pressure;Samples;Min_cycle;Max_cycle;Signal;HPM_P1;HPM_P2
2022/02/26 00:02:08;;;;;;;54.98;17.07;;;;;;;8.71;72.03;100753.03;1861371;77;21034;-62
2022/02/26 00:04:36;;;;;;;52.25;17.45;;;;;;;8.72;71.99;100753.42;1861396;77;21583;-61
2022/02/26 00:07:05;;;;;;;45.15;15.20;;;;;;;8.70;72.07;100759.18;1824715;77;21098;-62
2022/02/26 00:09:34;;;;;;;50.23;15.65;;;;;;;8.71;72.11;100762.23;1809889;79;21137;-62
2022/02/26 00:12:03;;;;;;;51.95;18.37;;;;;;;8.73;71.95;100763.03;1809968;79;21063;-62
2022/02/26 00:14:32;;;;;;;53.98;17.02;;;;;;;8.75;71.77;100766.47;1825174;78;21100;-62
2022/02/26 00:17:01;;;;;;;54.15;16.87;;;;;;;8.76;71.60;100768.20;1843510;78;21124;-62
2022/02/26 00:19:31;;;;;;;50.85;16.30;;;;;;;8.76;71.56;100766.89;1843557;78;21136;-61
2022/02/26 00:22:01;;;;;;;49.30;16.95;;;;;;;8.76;71.52;100764.27;1843490;78;21125;-61
2022/02/26 00:24:30;;;;;;;49.85;16.10;;;;;;;8.76;71.47;100765.58;1843627;78;21663;-60
2022/02/26 00:26:58;;;;;;;51.98;16.10;;;;;;;8.76;71.38;100768.63;1843466;78;21058;-60
2022/02/26 00:29:27;;;;;;;58.30;16.57;;;;;;;8.76;71.36;100767.31;1843518;78;21129;-62
2022/02/26 00:31:57;;;;;;;52.03;17.95;;;;;;;8.76;71.35;100772.56;1843522;78;21172;-61
2022/02/26 00:34:26;;;;;;;51.85;16.40;;;;;;;8.75;71.35;100766.47;1843628;78;21046;-61
2022/02/26 00:36:55;;;;;;;55.92;15.85;;;;;;;8.76;71.35;100769.52;1843424;78;21639;-60
2022/02/26 00:39:24;;;;;;;49.60;15.83;;;;;;;8.77;71.32;100779.09;1843528;78;21078;-60
2022/02/26 00:41:52;;;;;;;52.00;17.12;;;;;;;8.76;71.31;100773.45;1843539;78;21046;-59
2022/02/26 00:44:21;;;;;;;58.58;16.97;;;;;;;8.76;71.31;100776.08;1843649;78;21054;-59
2022/02/26 00:46:50;;;;;;;54.60;16.75;;;;;;;8.76;71.32;100777.81;1843493;78;21070;-58
2022/02/26 00:52:05;;;;;;;55.38;17.17;;;;;;;8.75;71.40;100779.59;1809914;79;21042;-57
2022/02/26 00:54:34;;;;;;;50.90;16.55;;;;;;;8.74;71.41;100785.73;1835170;77;21090;-58
2022/02/26 00:57:03;;;;;;;58.95;16.35;;;;;;;8.73;71.37;100795.84;1838864;77;21113;-58
2022/02/26 00:59:32;;;;;;;53.90;15.88;;;;;;;8.71;71.37;100798.98;1837898;77;21026;-59
2022/02/26 01:02:01;;;;;;;56.75;17.60;;;;;;;8.68;71.43;100806.94;1844765;77;21081;-59
2022/02/26 01:04:29;;;;;;;54.33;17.52;;;;;;;8.62;71.55;100800.56;1846568;77;21103;-58
2022/02/26 01:06:58;;;;;;;61.28;17.35;;;;;;;8.62;71.61;100808.44;1835313;77;21098;-59
2022/02/26 01:09:27;;;;;;;66.17;19.30;;;;;;;8.61;71.72;100810.64;1847360;77;21366;-58
2022/02/26 01:11:56;;;;;;;60.40;19.00;;;;;;;8.61;71.76;100811.95;1852765;77;21046;-60
2022/02/26 01:14:25;;;;;;;57.93;20.43;;;;;;;8.60;71.84;100811.56;1852648;77;21054;-57
2022/02/26 01:16:54;;;;;;;62.27;18.50;;;;;;;8.59;71.97;100820.33;1852800;77;21461;-57
2022/02/26 01:19:23;;;;;;;57.08;17.37;;;;;;;8.56;72.12;100818.67;1850389;77;21546;-58
2022/02/26 01:21:52;;;;;;;52.43;15.98;;;;;;;8.55;72.25;100813.00;1852995;77;21508;-58
2022/02/26 01:24:21;;;;;;;59.35;16.73;;;;;;;8.55;72.26;100814.31;1852782;77;21132;-58
2022/02/26 01:26:50;;;;;;;57.60;18.50;;;;;;;8.56;72.37;100811.23;1852764;77;21578;-58
2022/02/26 01:29:19;;;;;;;58.48;18.12;;;;;;;8.53;72.56;100815.27;1852804;77;21508;-58
2022/02/26 01:31:48;;;;;;;53.85;15.98;;;;;;;8.50;72.80;100813.58;1850551;77;21105;-58
2022/02/26 01:34:17;;;;;;;60.98;15.45;;;;;;;8.52;72.76;100816.16;1852876;77;21120;-56
2022/02/26 01:36:45;;;;;;;59.08;16.27;;;;;;;8.52;72.63;100817.05;1852764;77;21141;-57
2022/02/26 01:39:18;;;;;;;55.65;16.32;;;;;;;8.50;72.59;100811.84;1852667;77;21069;-58
2022/02/26 01:41:44;;;;;;;47.20;15.70;;;;;;;8.47;72.61;100811.06;1852862;77;21626;-57
2022/02/26 01:44:13;;;;;;;55.80;16.30;;;;;;;8.41;72.76;100809.45;1852801;77;21149;-56
2022/02/26 01:46:42;;;;;;;60.55;18.82;;;;;;;8.37;72.87;100815.66;1823937;77;21026;-56
2022/02/26 01:49:11;;;;;;;55.88;16.77;;;;;;;8.37;72.94;100814.36;1820584;79;21079;-56
2022/02/26 01:51:40;;;;;;;59.05;18.32;;;;;;;8.35;73.19;100812.23;1820556;79;21628;-57
2022/02/26 01:54:09;;;;;;;54.18;17.77;;;;;;;8.36;73.43;100816.59;1820609;79;21215;-57
2022/02/26 01:56:38;;;;;;;60.88;17.25;;;;;;;8.37;73.63;100818.75;1798008;80;21571;-57
2022/02/26 01:59:07;;;;;;;49.18;16.95;;;;;;;8.38;73.81;100818.71;1802511;80;21132;-56
2022/02/26 02:01:36;;;;;;;54.90;17.67;;;;;;;8.40;73.90;100814.28;1802382;79;21057;-57
2022/02/26 02:04:05;;;;;;;51.20;15.35;;;;;;;8.42;73.92;100816.44;1802659;79;21090;-56
2022/02/26 02:06:34;;;;;;;55.23;17.12;;;;;;;8.44;73.93;100813.31;1802277;80;21133;-56
2022/02/26 02:09:03;;;;;;;54.45;17.65;;;;;;;8.46;73.86;100815.43;1802320;80;21124;-56
2022/02/26 02:11:33;;;;;;;55.83;17.25;;;;;;;8.45;73.84;100818.98;1802404;80;21520;-56
2022/02/26 02:14:02;;;;;;;61.25;17.90;;;;;;;8.44;73.98;100819.87;1802364;79;21098;-52
2022/02/26 02:16:31;;;;;;;58.15;17.98;;;;;;;8.43;74.10;100821.25;1802262;80;21536;-56
2022/02/26 02:19:03;;;;;;;54.50;17.95;;;;;;;8.42;74.22;100817.75;1802387;79;21038;-53
2022/02/26 02:21:31;;;;;;;57.53;18.02;;;;;;;8.43;74.31;100819.48;1802370;80;21086;-56
2022/02/26 02:24:00;;;;;;;58.75;17.00;;;;;;;8.46;74.33;100818.05;1802393;79;21058;-58
2022/02/26 02:26:30;;;;;;;57.58;18.15;;;;;;;8.47;74.24;100817.17;1802368;80;21516;-58
2022/02/26 02:29:00;;;;;;;62.62;18.57;;;;;;;8.49;74.26;100815.36;1802291;80;21054;-53
2022/02/26 02:31:30;;;;;;;53.87;16.35;;;;;;;8.52;74.23;100822.73;1802361;80;21062;-55
2022/02/26 02:33:59;;;;;;;54.95;15.93;;;;;;;8.53;74.21;100825.77;1802366;79;21504;-55
2022/02/26 02:36:28;;;;;;;58.00;17.30;;;;;;;8.54;74.26;100832.72;1802474;80;21121;-56
2022/02/26 02:38:57;;;;;;;55.90;16.60;;;;;;;8.54;74.35;100830.09;1802295;80;21512;-57
2022/02/26 02:41:26;;;;;;;58.10;18.40;;;;;;;8.55;74.41;100834.45;1802506;80;21070;-57
2022/02/26 02:43:54;;;;;;;57.08;18.27;;;;;;;8.54;74.48;100835.34;1802238;80;21094;-58
2022/02/26 02:46:24;;;;;;;56.83;17.50;;;;;;;8.55;74.54;100843.19;1802373;80;21546;-57
2022/02/26 02:48:54;;;;;;;58.13;16.62;;;;;;;8.57;74.53;100843.14;1802222;80;21062;-58
2022/02/26 02:51:23;;;;;;;66.37;18.02;;;;;;;8.57;74.47;100843.14;1802420;80;21038;-57
2022/02/26 02:53:51;;;;;;;55.55;17.48;;;;;;;8.58;74.44;100844.88;1802350;80;21082;-58
2022/02/26 02:56:20;;;;;;;48.08;15.88;;;;;;;8.58;74.44;100851.44;1807049;78;21098;-58
2022/02/26 02:58:49;;;;;;;51.13;16.87;;;;;;;8.57;74.43;100846.62;1811722;79;21590;-58
2022/02/26 03:01:18;;;;;;;54.40;16.40;;;;;;;8.57;74.44;100851.02;1811713;79;21074;-58
2022/02/26 03:03:47;;;;;;;60.33;18.10;;;;;;;8.58;74.42;100853.60;1811862;79;21614;-58
2022/02/26 03:06:16;;;;;;;53.48;16.60;;;;;;;8.57;74.42;100851.87;1811998;79;21132;-58
2022/02/26 03:08:46;;;;;;;55.90;16.75;;;;;;;8.57;74.41;100853.18;1811784;79;21062;-58
2022/02/26 03:11:15;;;;;;;59.80;18.57;;;;;;;8.57;74.38;100856.27;1811663;79;21603;-57
2022/02/26 03:13:45;;;;;;;52.30;17.12;;;;;;;8.57;74.42;100857.12;1811724;79;21513;-58
2022/02/26 03:16:15;;;;;;;65.87;20.60;;;;;;;8.56;74.43;100865.91;1811863;79;21474;-58
2022/02/26 03:18:44;;;;;;;67.37;22.25;;;;;;;8.55;74.45;100862.87;1811723;79;21106;-58
2022/02/26 03:21:13;;;;;;;69.35;20.70;;;;;;;8.55;74.44;100865.95;1811742;79;21035;-58
2022/02/26 03:23:42;;;;;;;57.05;19.70;;;;;;;8.54;74.41;100861.59;1811637;79;21180;-58
2022/02/26 03:26:11;;;;;;;59.83;17.87;;;;;;;8.54;74.43;100866.84;1811806;79;21160;-57
2022/02/26 03:28:40;;;;;;;54.03;18.87;;;;;;;8.53;74.44;100870.39;1811873;79;21090;-58
2022/02/26 03:31:08;;;;;;;58.58;18.07;;;;;;;8.51;74.57;100875.67;1811669;79;21126;-58
2022/02/26 03:33:37;;;;;;;61.80;18.55;;;;;;;8.50;74.64;100880.07;1811702;79;21062;-58
2022/02/26 03:36:06;;;;;;;71.57;20.17;;;;;;;8.49;74.81;100882.27;1811679;79;21042;-58
2022/02/26 03:38:35;;;;;;;60.98;17.52;;;;;;;8.49;74.90;100883.59;1812101;78;21058;-59
2022/02/26 03:41:05;;;;;;;66.02;19.05;;;;;;;8.46;74.97;100884.97;1811745;79;21058;-59
2022/02/26 03:43:36;;;;;;;57.30;19.90;;;;;;;8.43;75.03;100882.92;1811651;79;21466;-60
2022/02/26 03:46:04;;;;;;;62.83;19.30;;;;;;;8.43;74.93;100887.70;1811307;79;21148;-59
2022/02/26 03:48:34;;;;;;;64.05;20.43;;;;;;;8.44;74.98;100889.41;1811721;79;21072;-59
2022/02/26 03:51:05;;;;;;;60.23;18.95;;;;;;;8.45;75.06;100891.14;1811768;79;21596;-59
2022/02/26 03:53:34;;;;;;;74.15;21.60;;;;;;;8.47;75.10;100891.95;1811747;79;21062;-58
2022/02/26 03:56:03;;;;;;;62.00;19.42;;;;;;;8.49;75.09;100898.48;1811537;79;21183;-59
2022/02/26 03:58:32;;;;;;;59.00;17.40;;;;;;;8.49;75.13;100899.33;1811788;79;21082;-60
2022/02/26 04:01:01;;;;;;;65.75;18.50;;;;;;;8.50;75.13;100906.75;1811415;79;21587;-60
2022/02/26 04:03:29;;;;;;;61.35;18.90;;;;;;;8.51;75.08;100915.05;1811691;79;21497;-60
2022/02/26 04:05:58;;;;;;;57.60;19.02;;;;;;;8.50;75.14;100919.44;1811767;79;21069;-60
2022/02/26 04:08:28;;;;;;;66.02;20.32;;;;;;;8.51;75.21;100918.98;1811610;79;21054;-59
2022/02/26 04:10:57;;;;;;;63.25;18.80;;;;;;;8.52;75.26;100924.65;1836542;78;21112;-60
2022/02/26 04:13:26;;;;;;;63.90;18.70;;;;;;;8.53;75.18;100922.88;1843540;78;21038;-60
2022/02/26 04:15:54;;;;;;;65.60;18.90;;;;;;;8.52;75.08;100918.09;1843509;78;21109;-59
2022/02/26 04:18:23;;;;;;;64.42;21.12;;;;;;;8.53;75.07;100921.56;1843546;78;21139;-58
2022/02/26 04:20:52;;;;;;;67.17;19.25;;;;;;;8.50;75.08;100931.25;1841485;78;21043;-59
2022/02/26 04:23:21;;;;;;;61.33;18.35;;;;;;;8.44;75.16;100932.70;1843628;78;21597;-58
2022/02/26 04:25:50;;;;;;;71.85;22.25;;;;;;;8.42;75.17;100930.58;1843508;78;21074;-58
2022/02/26 04:28:19;;;;;;;67.87;20.08;;;;;;;8.42;75.16;100934.52;1843415;78;21089;-60
2022/02/26 04:30:49;;;;;;;67.22;20.37;;;;;;;8.41;75.16;100939.77;1843636;78;21066;-60
2022/02/26 04:33:20;;;;;;;69.60;20.35;;;;;;;8.38;75.29;100943.34;1843630;77;21175;-59
2022/02/26 04:35:49;;;;;;;63.63;20.50;;;;;;;8.38;75.28;100943.34;1829939;77;21102;-60
2022/02/26 04:38:18;;;;;;;64.53;20.30;;;;;;;8.42;75.23;100954.19;1823399;79;21083;-60
2022/02/26 04:40:46;;;;;;;73.07;21.87;;;;;;;8.46;75.26;100959.77;1823585;78;21251;-60
2022/02/26 04:43:15;;;;;;;64.10;21.45;;;;;;;8.48;75.41;100967.17;1823374;79;21059;-60
2022/02/26 04:45:45;;;;;;;67.87;20.17;;;;;;;8.50;75.58;100966.67;1824739;78;21132;-58
2022/02/26 04:48:14;;;;;;;59.35;19.60;;;;;;;8.51;75.66;100972.78;1823325;79;21079;-59
2022/02/26 04:50:43;;;;;;;62.60;19.45;;;;;;;8.54;75.73;100979.70;1823470;79;21062;-59
2022/02/26 04:53:12;;;;;;;59.55;18.65;;;;;;;8.57;75.74;100988.81;1823422;79;21079;-58
2022/02/26 04:55:42;;;;;;;70.15;20.52;;;;;;;8.60;75.71;100982.18;1823481;79;21595;-58
2022/02/26 04:58:11;;;;;;;63.08;18.80;;;;;;;8.63;75.65;100984.70;1823514;78;21158;-59
2022/02/26 05:00:40;;;;;;;71.45;20.43;;;;;;;8.65;75.64;100992.96;1834545;78;21078;-59
2022/02/26 05:03:09;;;;;;;70.70;20.60;;;;;;;8.69;75.64;100998.98;1843736;78;21634;-59
2022/02/26 05:05:37;;;;;;;69.27;19.40;;;;;;;8.71;75.69;101007.69;1843594;78;21046;-59
2022/02/26 05:08:06;;;;;;;56.28;18.35;;;;;;;8.73;75.67;101009.81;1843586;77;21144;-58
2022/02/26 05:10:35;;;;;;;61.05;18.42;;;;;;;8.73;75.73;101012.44;1832653;78;21438;-58
2022/02/26 05:13:05;;;;;;;57.95;19.23;;;;;;;8.75;75.66;101015.88;1816031;79;21079;-58
2022/02/26 05:15:33;;;;;;;56.25;17.82;;;;;;;8.77;75.60;101020.63;1816008;78;21646;-58
2022/02/26 05:18:02;;;;;;;64.90;20.55;;;;;;;8.79;75.53;101018.83;1815961;79;21125;-58
2022/02/26 05:20:31;;;;;;;56.95;19.90;;;;;;;8.81;75.52;101026.20;1816099;79;21026;-59
2022/02/26 05:23:01;;;;;;;53.38;18.42;;;;;;;8.82;75.44;101027.94;1816028;79;21611;-58
2022/02/26 05:25:30;;;;;;;49.93;17.50;;;;;;;8.82;75.43;101033.19;1815565;78;21140;-57
2022/02/26 05:27:58;;;;;;;57.15;18.98;;;;;;;8.84;75.38;101031.84;1816027;79;21542;-58
2022/02/26 05:30:27;;;;;;;59.88;18.00;;;;;;;8.83;75.18;101037.98;1815943;78;21117;-59
2022/02/26 05:32:56;;;;;;;55.55;17.85;;;;;;;8.76;75.31;101037.73;1816084;79;21859;-58
2022/02/26 05:35:25;;;;;;;51.75;17.95;;;;;;;8.71;75.40;101044.44;1815140;79;21473;-58
2022/02/26 05:37:54;;;;;;;51.35;17.48;;;;;;;8.69;75.40;101040.53;1811837;79;21034;-58
2022/02/26 05:40:23;;;;;;;55.70;18.27;;;;;;;8.76;75.25;101041.25;1811657;79;21062;-59
2022/02/26 05:42:55;;;;;;;51.95;19.35;;;;;;;8.81;75.06;101043.27;1811816;79;21058;-58
2022/02/26 05:45:23;;;;;;;48.73;15.85;;;;;;;8.83;74.92;101048.03;1811650;78;21086;-57
2022/02/26 05:47:52;;;;;;;56.73;20.27;;;;;;;8.85;74.83;101054.13;1839846;77;21062;-59
2022/02/26 05:52:58;;;;;;;48.52;18.50;;;;;;;8.84;74.80;101065.52;1912806;75;21082;-56
2022/02/26 05:55:27;;;;;;;52.98;18.12;;;;;;;8.83;74.81;101065.09;1917136;75;21120;-57
2022/02/26 05:57:56;;;;;;;44.23;17.37;;;;;;;8.80;74.86;101066.51;1949238;73;21549;-56
2022/02/26 06:00:26;;;;;;;53.20;17.35;;;;;;;8.77;74.96;101069.20;1954914;73;21584;-56
2022/02/26 06:02:55;;;;;;;55.40;18.85;;;;;;;8.79;74.97;101066.09;1954977;73;21024;-56
2022/02/26 06:05:23;;;;;;;50.55;17.40;;;;;;;8.84;74.88;101079.96;1954923;73;21153;-55
2022/02/26 06:07:52;;;;;;;48.95;17.52;;;;;;;8.91;74.89;101081.10;1930422;73;20993;-56
2022/02/26 06:10:21;;;;;;;46.65;17.40;;;;;;;8.93;74.86;101079.30;1917087;75;20990;-58
2022/02/26 06:12:49;;;;;;;52.30;17.98;;;;;;;8.97;74.84;101083.12;1917236;75;21185;-58
2022/02/26 06:15:18;;;;;;;46.55;17.12;;;;;;;9.03;74.78;101086.03;1917239;75;20994;-59
2022/02/26 06:17:46;;;;;;;43.00;16.85;;;;;;;9.08;74.66;101085.47;1919708;73;21005;-59
2022/02/26 06:20:15;;;;;;;57.33;18.92;;;;;;;9.07;74.79;101089.87;1917175;75;21041;-58
2022/02/26 06:22:44;;;;;;;49.77;17.37;;;;;;;9.12;74.84;101090.19;1917084;75;20994;-59
2022/02/26 06:25:13;;;;;;;45.35;17.32;;;;;;;9.15;74.80;101088.34;1917256;74;21065;-58
2022/02/26 06:27:43;;;;;;;50.80;19.12;;;;;;;9.18;74.79;101096.11;1917184;75;21103;-59
2022/02/26 06:30:14;;;;;;;41.28;16.20;;;;;;;9.15;74.84;101094.91;1917253;75;21018;-59
2022/02/26 06:32:43;;;;;;;46.20;16.70;;;;;;;9.10;74.95;101098.11;1935736;73;21035;-59
2022/02/26 06:35:12;;;;;;;47.08;15.78;;;;;;;9.12;74.88;101098.92;1954742;73;21031;-59
2022/02/26 06:37:41;;;;;;;44.50;16.25;;;;;;;9.17;74.77;101103.61;1955037;73;21423;-59
2022/02/26 06:40:11;;;;;;;41.55;17.37;;;;;;;9.19;74.73;101103.56;1928036;73;20994;-57
2022/02/26 06:42:40;;;;;;;53.10;18.25;;;;;;;9.20;74.60;101102.64;1938434;73;21091;-58
2022/02/26 06:45:09;;;;;;;51.25;18.55;;;;;;;9.21;74.59;101102.61;1917199;75;20998;-58
2022/02/26 06:47:38;;;;;;;49.53;16.52;;;;;;;9.28;74.53;101104.16;1887582;75;21020;-59
2022/02/26 06:50:08;;;;;;;46.88;17.17;;;;;;;9.33;74.54;101107.11;1874616;75;21145;-58
2022/02/26 06:52:36;;;;;;;50.48;17.15;;;;;;;9.36;74.58;101108.34;1874565;76;21138;-58
2022/02/26 06:55:06;;;;;;;49.90;17.42;;;;;;;9.39;74.58;101105.65;1874615;76;21137;-59
2022/02/26 06:57:36;;;;;;;48.68;18.48;;;;;;;9.43;74.50;101111.22;1874581;75;21011;-58
2022/02/26 07:00:06;;;;;;;52.78;18.40;;;;;;;9.49;74.46;101112.34;1908686;75;21104;-58
2022/02/26 07:02:35;;;;;;;53.28;17.82;;;;;;;9.52;74.59;101110.95;1917114;74;20998;-59
2022/02/26 07:05:04;;;;;;;44.77;17.32;;;;;;;9.60;74.53;101112.05;1917238;74;21174;-58
2022/02/26 07:07:33;;;;;;;53.30;18.27;;;;;;;9.65;74.38;101118.03;1917322;74;21057;-58
2022/02/26 07:10:04;;;;;;;51.10;19.10;;;;;;;9.64;74.46;101115.84;1917295;74;21542;-60
2022/02/26 07:12:32;;;;;;;53.02;18.05;;;;;;;9.64;74.43;101117.15;1917338;75;21042;-59
2022/02/26 07:15:01;;;;;;;57.55;19.15;;;;;;;9.66;74.38;101116.69;1917209;75;21029;-57
2022/02/26 07:17:30;;;;;;;54.48;18.10;;;;;;;9.69;74.35;101117.50;1917661;73;21104;-59
2022/02/26 07:19:58;;;;;;;49.60;17.98;;;;;;;9.72;74.33;101114.75;1917175;75;20990;-58
2022/02/26 07:22:27;;;;;;;49.35;17.45;;;;;;;9.70;74.35;101119.20;1917209;75;20994;-58
2022/02/26 07:24:55;;;;;;;45.85;17.52;;;;;;;9.65;74.30;101119.35;1917381;73;21103;-59
2022/02/26 07:27:24;;;;;;;47.70;16.23;;;;;;;9.66;74.19;101121.05;1919617;73;21119;-58
2022/02/26 07:29:53;;;;;;;42.53;16.67;;;;;;;9.74;74.14;101121.71;1917165;75;20990;-59
2022/02/26 07:32:22;;;;;;;47.62;16.12;;;;;;;9.79;74.09;101124.19;1922296;73;21091;-60
2022/02/26 07:34:50;;;;;;;49.83;17.20;;;;;;;9.81;74.17;101125.89;1942094;73;21095;-59
2022/02/26 07:37:23;;;;;;;47.80;16.32;;;;;;;9.83;74.03;101124.50;1917304;75;21042;-59
2022/02/26 07:39:50;;;;;;;43.25;17.17;;;;;;;9.85;73.98;101122.72;1916511;74;21062;-58
2022/02/26 07:42:19;;;;;;;44.25;17.12;;;;;;;9.90;73.98;101122.56;1915618;74;21503;-58
2022/02/26 07:44:48;;;;;;;44.30;16.02;;;;;;;9.98;73.88;101135.05;1915494;75;21082;-58
2022/02/26 07:47:16;;;;;;;42.60;16.07;;;;;;;10.00;73.79;101131.45;1915612;74;21030;-58
2022/02/26 07:49:46;;;;;;;46.37;16.20;;;;;;;10.05;73.64;101136.13;1915547;75;21103;-57
2022/02/26 07:52:14;;;;;;;50.58;17.90;;;;;;;10.04;73.57;101143.59;1916922;74;21574;-58
2022/02/26 07:54:43;;;;;;;48.52;16.65;;;;;;;10.06;73.52;101142.23;1928240;74;21159;-57
2022/02/26 07:57:12;;;;;;;47.88;19.20;;;;;;;10.07;73.52;101143.97;1928401;73;21509;-57
2022/02/26 07:59:41;;;;;;;48.85;17.00;;;;;;;10.08;73.45;101146.14;1928423;74;21022;-57
2022/02/26 08:02:10;;;;;;;46.20;16.90;;;;;;;10.08;73.37;101143.05;1928226;73;21085;-58
2022/02/26 08:04:39;;;;;;;44.45;16.67;;;;;;;10.09;73.29;101146.53;1928385;74;21014;-58
2022/02/26 08:07:08;;;;;;;49.45;17.20;;;;;;;10.09;73.25;101150.48;1907480;74;21040;-57
2022/02/26 08:09:37;;;;;;;46.75;17.25;;;;;;;10.04;73.29;101146.22;1885182;76;21075;-57
2022/02/26 08:12:06;;;;;;;39.78;15.30;;;;;;;10.04;73.35;101142.73;1891791;74;21017;-65
2022/02/26 08:14:37;;;;;;;44.77;16.17;;;;;;;10.07;73.28;101158.87;1928511;74;21048;-64
2022/02/26 08:17:06;;;;;;;40.00;15.88;;;;;;;10.05;73.19;101156.28;1928398;73;21026;-60
2022/02/26 08:19:35;;;;;;;42.03;16.00;;;;;;;10.02;73.09;101155.94;1925873;74;21569;-60
2022/02/26 08:22:04;;;;;;;39.60;15.58;;;;;;;9.96;72.93;101158.76;1893557;76;21034;-60
2022/02/26 08:24:33;;;;;;;43.45;17.07;;;;;;;9.91;73.03;101165.92;1909103;73;21025;-60
2022/02/26 08:27:01;;;;;;;44.23;15.18;;;;;;;9.89;73.01;101167.73;1924563;74;21087;-59
2022/02/26 08:29:50;;;;;;;36.08;15.25;;;;;;;9.84;73.00;101165.23;1928385;74;21033;-60
2022/02/26 08:32:19;;;;;;;34.50;13.78;;;;;;;9.85;72.97;101160.85;1962489;73;21066;-57
2022/02/26 08:34:48;;;;;;;34.05;13.10;;;;;;;9.88;72.87;101166.46;1962392;73;21019;-58
2022/02/26 08:37:17;;;;;;;36.42;15.03;;;;;;;9.88;72.80;101168.63;1962510;73;21059;-55
2022/02/26 08:39:46;;;;;;;33.80;13.85;;;;;;;9.88;72.79;101169.94;1962370;73;21132;-57
2022/02/26 08:42:14;;;;;;;30.70;12.53;;;;;;;9.89;72.70;101172.14;1962364;73;21046;-57
2022/02/26 08:44:43;;;;;;;32.60;13.10;;;;;;;9.86;72.58;101173.08;1960759;73;21188;-60
2022/02/26 08:47:12;;;;;;;28.20;11.70;;;;;;;9.84;72.50;101168.31;1961026;73;21508;-61
2022/02/26 08:49:40;;;;;;;28.85;11.95;;;;;;;9.84;72.34;101169.63;1962223;73;21042;-61
2022/02/26 08:52:09;;;;;;;29.30;12.88;;;;;;;9.84;72.07;101174.89;1960347;73;21104;-61
2022/02/26 08:54:38;;;;;;;27.77;12.18;;;;;;;9.82;72.07;101176.70;1960373;73;21038;-60
2022/02/26 08:57:07;;;;;;;28.95;12.28;;;;;;;9.76;71.90;101178.21;1960315;73;21466;-61
2022/02/26 08:59:36;;;;;;;29.23;12.40;;;;;;;9.76;71.96;101174.27;1960348;73;21479;-60
2022/02/26 09:02:05;;;;;;;29.37;11.85;;;;;;;9.76;71.90;101179.52;1960548;73;21051;-60
2022/02/26 09:04:34;;;;;;;32.65;12.73;;;;;;;9.80;71.77;101179.84;1962323;73;21457;-60
2022/02/26 09:07:04;;;;;;;25.12;11.48;;;;;;;9.88;71.60;101180.93;1962358;73;21010;-60
2022/02/26 09:09:33;;;;;;;27.93;11.30;;;;;;;9.91;71.48;101178.22;1962315;73;21065;-61
2022/02/26 09:12:03;;;;;;;26.65;11.63;;;;;;;9.91;71.39;101177.75;1962332;73;21081;-60
2022/02/26 09:14:31;;;;;;;27.52;11.78;;;;;;;9.94;71.29;101178.99;1962434;73;21096;-60
2022/02/26 09:17:00;;;;;;;28.83;12.82;;;;;;;9.96;71.19;101175.86;1962462;73;21030;-60
2022/02/26 09:19:29;;;;;;;23.47;10.10;;;;;;;9.94;71.20;101180.73;1962263;73;21100;-64
2022/02/26 09:21:58;;;;;;;29.25;11.45;;;;;;;9.94;71.17;101182.94;1962376;73;21031;-65
2022/02/26 09:24:30;;;;;;;25.30;11.28;;;;;;;9.98;71.13;101183.25;1962294;73;21438;-64
2022/02/26 09:27:00;;;;;;;24.77;11.57;;;;;;;9.99;71.02;101182.33;1962566;73;21043;-64
2022/02/26 09:29:29;;;;;;;26.95;11.55;;;;;;;10.08;70.95;101181.66;1962422;73;21091;-66
2022/02/26 09:31:58;;;;;;;24.63;10.05;;;;;;;10.14;70.87;101188.05;1947647;73;21460;-64
2022/02/26 09:34:29;;;;;;;30.37;12.75;;;;;;;10.23;70.76;101181.19;1938777;74;21045;-64
2022/02/26 09:36:58;;;;;;;28.12;12.37;;;;;;;10.31;70.69;101189.77;1938840;74;21025;-64
2022/02/26 09:39:27;;;;;;;24.10;11.43;;;;;;;10.36;70.64;101186.50;1939252;74;21029;-64
2022/02/26 09:42:02;;;;;;;29.32;11.97;;;;;;;10.42;70.56;101186.34;1938777;74;21078;-64
2022/02/26 09:44:30;;;;;;;29.70;11.48;;;;;;;10.45;70.27;101186.68;1939224;74;21069;-64
2022/02/26 09:46:59;;;;;;;26.80;10.98;;;;;;;10.40;69.96;101188.16;1938916;74;21119;-64
2022/02/26 09:49:28;;;;;;;27.60;11.38;;;;;;;10.43;70.09;101185.87;1939040;74;21099;-64
2022/02/26 09:51:58;;;;;;;27.85;12.00;;;;;;;10.42;70.25;101184.13;1939039;74;21087;-64
2022/02/26 09:54:28;;;;;;;24.90;10.25;;;;;;;10.41;70.34;101192.50;1939022;74;21029;-64
2022/02/26 09:56:56;;;;;;;24.32;10.25;;;;;;;10.45;70.22;101183.20;1938855;74;21034;-64
2022/02/26 09:59:28;;;;;;;26.30;11.03;;;;;;;10.42;70.04;101188.97;1938948;74;21024;-64
2022/02/26 10:01:59;;;;;;;25.75;10.93;;;;;;;10.41;69.94;101185.06;1938252;74;21088;-64
2022/02/26 10:04:29;;;;;;;22.32;9.53;;;;;;;10.43;69.92;101193.30;1938598;74;21475;-64
2022/02/26 10:07:22;;;;;;;26.42;11.57;;;;;;;10.43;69.89;101195.94;1939036;74;20997;-64
2022/02/26 10:09:46;;;;;;;27.35;11.80;;;;;;;10.45;69.87;101200.31;1938938;74;21491;-64
2022/02/26 10:12:37;;;;;;;25.40;10.75;;;;;;;10.39;69.81;101199.58;1938937;74;21475;-64
2022/02/26 10:15:07;;;;;;;28.27;10.98;;;;;;;10.30;69.81;101198.98;1938442;74;21045;-64
2022/02/26 10:17:38;;;;;;;25.17;11.15;;;;;;;10.23;70.02;101207.50;1939146;74;21448;-62
2022/02/26 10:20:16;;;;;;;26.93;11.05;;;;;;;10.18;70.05;101209.41;1939016;74;21537;-61
2022/02/26 10:22:51;;;;;;;24.67;10.90;;;;;;;10.04;69.73;101210.68;1938998;74;21569;-61
2022/02/26 10:25:30;;;;;;;23.77;10.88;;;;;;;9.95;69.99;101213.58;1939090;74;21013;-62
2022/02/26 10:28:02;;;;;;;27.62;12.45;;;;;;;9.91;70.12;101213.27;1938932;74;21114;-61
2022/02/26 10:30:34;;;;;;;25.68;10.95;;;;;;;9.91;70.16;101217.21;1939086;74;21092;-61
2022/02/26 10:33:17;;;;;;;23.47;11.08;;;;;;;9.85;70.14;101217.40;1935969;73;21226;-61
2022/02/26 10:35:48;;;;;;;26.70;11.15;;;;;;;9.86;70.17;101218.64;1935617;74;21127;-62
2022/02/26 10:38:20;;;;;;;28.55;10.38;;;;;;;9.88;70.11;101215.97;1935580;74;21060;-62
2022/02/26 10:40:51;;;;;;;27.13;9.73;;;;;;;9.81;70.11;101217.94;1935550;74;21033;-60
2022/02/26 10:43:47;;;;;;;34.73;11.22;;;;;;;9.75;70.30;101224.66;1935322;74;21546;-59
2022/02/26 10:46:25;;;;;;;28.27;10.08;;;;;;;9.68;70.41;101228.83;1935294;74;21515;-59
2022/02/26 10:49:05;;;;;;;24.90;11.00;;;;;;;9.70;70.43;101228.33;1935448;73;21077;-59
2022/02/26 10:51:35;;;;;;;28.50;12.07;;;;;;;9.68;70.38;101227.05;1935100;74;21096;-59
2022/02/26 10:54:06;;;;;;;23.90;11.25;;;;;;;9.64;70.56;101228.05;1934466;74;21010;-58
2022/02/26 10:56:37;;;;;;;27.20;11.97;;;;;;;9.72;70.41;101240.97;1922720;74;21076;-58
2022/02/26 10:59:08;;;;;;;25.45;11.90;;;;;;;9.76;70.35;101230.80;1935345;74;21050;-59
2022/02/26 11:01:38;;;;;;;29.00;11.08;;;;;;;9.81;70.35;101239.41;1901834;75;21025;-60
2022/02/26 11:04:08;;;;;;;28.55;11.78;;;;;;;9.83;70.27;101240.22;1901745;75;21484;-61
2022/02/26 11:06:37;;;;;;;28.60;11.65;;;;;;;9.90;70.18;101243.55;1901907;75;21009;-60
2022/02/26 11:09:07;;;;;;;24.67;10.93;;;;;;;9.96;70.12;101242.05;1901851;75;21444;-59
2022/02/26 11:11:36;;;;;;;28.50;11.40;;;;;;;9.99;70.03;101241.52;1905578;74;21484;-60
2022/02/26 11:14:06;;;;;;;24.67;10.78;;;;;;;9.99;69.83;101248.09;1933408;74;21022;-60
2022/02/26 11:16:37;;;;;;;28.80;11.88;;;;;;;9.97;69.84;101243.80;1933397;74;21550;-59
2022/02/26 11:19:07;;;;;;;22.82;10.93;;;;;;;10.00;69.82;101257.72;1933404;74;21504;-59
2022/02/26 11:21:37;;;;;;;26.68;11.10;;;;;;;9.97;69.80;101254.31;1933684;74;21018;-60
2022/02/26 11:24:07;;;;;;;25.85;11.25;;;;;;;9.98;69.76;101262.17;1933482;74;21025;-60
2022/02/26 11:26:36;;;;;;;24.40;11.08;;;;;;;10.01;69.66;101266.05;1933463;74;21002;-59
2022/02/26 11:29:06;;;;;;;27.98;12.43;;;;;;;10.01;69.62;101268.67;1933336;74;21472;-61
2022/02/26 11:31:43;;;;;;;26.45;11.38;;;;;;;10.00;69.51;101264.77;1933427;74;21480;-59
2022/02/26 11:34:12;;;;;;;29.98;12.37;;;;;;;10.00;69.38;101266.94;1937331;74;21535;-59